createdAt,value
2019-03-04T00:01:01.751Z,20.80
2019-03-04T00:03:31.539Z,20.80
2019-03-04T00:06:01.192Z,20.80
2019-03-04T00:08:32.916Z,20.80
2019-03-04T00:11:02.308Z,20.80
2019-03-04T00:13:31.943Z,20.80
2019-03-04T00:16:01.702Z,20.80
2019-03-04T00:18:31.479Z,20.80
2019-03-04T00:21:01.145Z,20.80
2019-03-04T00:23:30.783Z,20.80
2019-03-04T00:26:00.632Z,20.80
2019-03-04T00:28:30.263Z,20.80
2019-03-04T00:30:59.891Z,20.80
2019-03-04T00:33:29.599Z,20.80
2019-03-04T00:35:59.231Z,20.80
2019-03-04T00:38:28.876Z,20.80
2019-03-04T00:40:58.523Z,20.80
2019-03-04T00:43:28.228Z,20.80
2019-03-04T00:45:57.862Z,20.80
2019-03-04T00:48:28.771Z,20.80
2019-03-04T00:50:58.479Z,20.80
2019-03-04T00:53:28.116Z,20.80
2019-03-04T00:55:57.751Z,20.80
2019-03-04T00:58:28.518Z,20.80
2019-03-04T01:00:58.215Z,20.80
2019-03-04T01:03:27.859Z,20.80
2019-03-04T01:05:57.517Z,20.80
2019-03-04T01:08:27.226Z,20.80
2019-03-04T01:10:56.947Z,20.80
2019-03-04T01:13:26.663Z,20.80
2019-03-04T01:15:56.307Z,20.80
2019-03-04T01:18:26.072Z,20.80
2019-03-04T01:20:55.725Z,20.80
2019-03-04T01:23:25.431Z,20.80
2019-03-04T01:25:55.071Z,20.80
2019-03-04T01:28:24.703Z,20.80
2019-03-04T01:30:54.362Z,20.80
2019-03-04T01:33:23.983Z,20.80
2019-03-04T01:35:53.619Z,20.80
2019-03-04T01:38:23.244Z,20.80
2019-03-04T01:40:52.895Z,20.80
2019-03-04T01:43:22.515Z,20.80
2019-03-04T01:45:52.255Z,20.80
2019-03-04T01:48:21.934Z,20.80
2019-03-04T01:50:51.584Z,20.80
2019-03-04T01:53:21.202Z,20.80
2019-03-04T01:55:50.851Z,20.80
2019-03-04T01:58:20.483Z,20.80
2019-03-04T02:00:50.135Z,20.80
2019-03-04T02:03:19.763Z,20.80
2019-03-04T02:05:49.396Z,20.80
2019-03-04T02:08:19.118Z,20.80
2019-03-04T02:10:48.896Z,20.80
2019-03-04T02:13:19.495Z,20.80
2019-03-04T02:15:49.803Z,20.80
2019-03-04T02:18:19.435Z,20.80
2019-03-04T02:20:50.039Z,20.80
2019-03-04T02:23:19.696Z,20.80
2019-03-04T02:26:27.668Z,20.70
2019-03-04T02:28:57.386Z,20.80
2019-03-04T02:31:27.051Z,20.70
2019-03-04T02:33:56.736Z,20.70
2019-03-04T02:36:27.423Z,20.70
2019-03-04T02:38:57.069Z,20.80
2019-03-04T02:41:26.703Z,20.70
2019-03-04T02:43:56.333Z,20.70
2019-03-04T02:46:25.972Z,20.80
2019-03-04T02:48:55.613Z,20.80
2019-03-04T02:51:26.342Z,20.70
2019-03-04T02:53:57.017Z,20.70
2019-03-04T02:56:26.648Z,20.80
2019-03-04T02:58:56.301Z,20.80
2019-03-04T03:01:26.887Z,20.70
2019-03-04T03:03:56.524Z,20.70
2019-03-04T03:06:26.157Z,20.70
2019-03-04T03:08:55.859Z,20.70
2019-03-04T03:11:25.505Z,20.80
2019-03-04T03:13:55.138Z,20.70
2019-03-04T03:16:24.756Z,20.70
2019-03-04T03:18:54.392Z,20.70
2019-03-04T03:21:24.027Z,20.70
2019-03-04T03:23:53.649Z,20.70
2019-03-04T03:26:23.381Z,20.70
2019-03-04T03:28:53.007Z,20.80
2019-03-04T03:31:22.650Z,20.70
2019-03-04T03:33:52.304Z,20.70
2019-03-04T03:36:22.073Z,20.70
2019-03-04T03:38:51.687Z,20.70
2019-03-04T03:41:21.322Z,20.70
2019-03-04T03:43:50.955Z,20.70
2019-03-04T03:46:20.596Z,20.70
2019-03-04T03:48:50.230Z,20.70
2019-03-04T03:51:19.859Z,20.70
2019-03-04T03:53:49.494Z,20.70
2019-03-04T03:56:20.178Z,20.70
2019-03-04T03:58:49.887Z,20.70
2019-03-04T04:01:19.660Z,20.70
2019-03-04T04:03:49.283Z,20.70
2019-03-04T04:06:18.921Z,20.70
2019-03-04T04:08:48.543Z,20.70
2019-03-04T04:11:18.173Z,20.70
2019-03-04T04:13:47.794Z,20.70
2019-03-04T04:16:17.429Z,20.70
2019-03-04T04:18:47.059Z,20.70
2019-03-04T04:21:16.771Z,20.70
2019-03-04T04:23:46.471Z,20.70
2019-03-04T04:26:21.979Z,20.70
2019-03-04T04:28:59.200Z,20.70
2019-03-04T04:31:28.892Z,20.70
2019-03-04T04:33:58.528Z,20.70
2019-03-04T04:36:28.151Z,20.70
2019-03-04T04:38:57.780Z,20.70
2019-03-04T04:41:27.412Z,20.70
2019-03-04T04:43:57.031Z,20.70
2019-03-04T04:46:49.100Z,20.70
2019-03-04T04:49:18.806Z,20.70
2019-03-04T04:51:48.927Z,20.80
2019-03-04T04:54:18.558Z,20.80
2019-03-04T04:56:48.195Z,20.80
2019-03-04T04:59:17.818Z,20.80
2019-03-04T05:01:47.467Z,20.70
2019-03-04T05:04:17.175Z,20.70
2019-03-04T05:06:47.775Z,20.70
2019-03-04T05:09:17.407Z,20.70
2019-03-04T05:11:47.040Z,20.70
2019-03-04T05:14:16.663Z,20.70
2019-03-04T05:16:46.386Z,20.70
2019-03-04T05:19:16.096Z,20.70
2019-03-04T05:21:45.727Z,20.70
2019-03-04T05:24:15.351Z,20.70
2019-03-04T05:26:44.987Z,20.70
2019-03-04T05:29:14.756Z,20.70
2019-03-04T05:31:44.391Z,20.70
2019-03-04T05:34:14.020Z,20.70
2019-03-04T05:36:43.651Z,20.70
2019-03-04T05:39:13.307Z,20.70
2019-03-04T05:41:42.948Z,20.70
2019-03-04T05:44:12.585Z,20.70
2019-03-04T05:46:42.219Z,20.70
2019-03-04T05:49:11.864Z,20.80
2019-03-04T05:51:41.532Z,20.80
2019-03-04T05:54:11.211Z,20.80
2019-03-04T05:56:40.867Z,20.80
2019-03-04T05:59:19.310Z,20.80
2019-03-04T06:01:55.207Z,20.80
2019-03-04T06:04:24.833Z,20.80
2019-03-04T06:07:07.269Z,20.80
2019-03-04T06:09:37.083Z,20.80
2019-03-04T06:12:06.729Z,20.90
2019-03-04T06:14:36.359Z,20.90
2019-03-04T06:17:06.074Z,20.90
2019-03-04T06:19:35.707Z,20.80
2019-03-04T06:22:05.346Z,20.90
2019-03-04T06:24:35.972Z,20.90
2019-03-04T06:27:05.681Z,20.90
2019-03-04T06:29:35.395Z,20.90
2019-03-04T06:32:05.107Z,20.90
2019-03-04T06:34:34.735Z,20.90
2019-03-04T06:37:04.447Z,20.90
2019-03-04T06:39:34.148Z,20.90
2019-03-04T06:42:03.910Z,20.90
2019-03-04T06:44:33.671Z,20.90
2019-03-04T06:47:04.484Z,20.90
2019-03-04T06:49:34.171Z,20.90
2019-03-04T06:52:04.166Z,20.90
2019-03-04T06:54:39.815Z,20.90
2019-03-04T06:57:27.899Z,20.90
2019-03-04T07:00:20.051Z,20.90
2019-03-04T07:02:49.759Z,20.90
2019-03-04T07:05:54.147Z,20.90
2019-03-04T07:09:09.308Z,20.90
2019-03-04T07:11:40.281Z,20.80
2019-03-04T07:14:10.122Z,20.80
2019-03-04T07:16:39.872Z,20.80
2019-03-04T07:19:11.416Z,20.70
2019-03-04T07:21:41.185Z,20.70
2019-03-04T07:24:11.694Z,20.70
2019-03-04T07:26:41.516Z,20.70
2019-03-04T07:29:11.291Z,20.70
2019-03-04T07:31:41.053Z,20.70
2019-03-04T07:34:10.820Z,20.60
2019-03-04T07:36:40.598Z,20.70
2019-03-04T07:39:13.443Z,20.70
2019-03-04T07:41:44.884Z,20.70
2019-03-04T07:44:14.670Z,20.70
2019-03-04T07:46:44.454Z,20.70
2019-03-04T07:49:14.221Z,20.70
2019-03-04T07:51:43.964Z,20.70
2019-03-04T07:54:13.743Z,20.70
2019-03-04T07:56:43.592Z,20.70
2019-03-04T07:59:13.455Z,20.70
2019-03-04T08:01:43.287Z,21.20
2019-03-04T08:04:13.082Z,21.60
2019-03-04T08:06:42.916Z,21.40
2019-03-04T08:10:00.926Z,21.10
2019-03-04T08:12:56.039Z,21.00
2019-03-04T08:15:27.468Z,20.90
2019-03-04T08:17:57.158Z,21.20
2019-03-04T08:20:26.915Z,21.60
2019-03-04T08:22:56.609Z,21.40
2019-03-04T08:25:26.367Z,21.30
2019-03-04T08:27:56.203Z,21.20
2019-03-04T08:30:26.033Z,21.30
2019-03-04T08:32:55.895Z,21.30
2019-03-04T08:35:25.723Z,21.30
2019-03-04T08:37:55.484Z,20.70
2019-03-04T08:40:25.263Z,19.50
2019-03-04T08:42:55.032Z,18.90
2019-03-04T08:45:24.891Z,18.60
2019-03-04T08:47:54.600Z,18.40
2019-03-04T08:50:24.983Z,18.70
2019-03-04T08:52:54.835Z,18.70
2019-03-04T08:55:24.667Z,19.20
2019-03-04T08:57:54.506Z,19.50
2019-03-04T09:00:27.610Z,19.70
2019-03-04T09:02:57.456Z,19.50
2019-03-04T09:05:27.290Z,19.90
2019-03-04T09:07:57.119Z,19.90
2019-03-04T09:10:28.462Z,19.90
2019-03-04T09:12:58.239Z,19.80
2019-03-04T09:15:28.267Z,19.70
2019-03-04T09:17:58.123Z,19.50
2019-03-04T09:20:28.083Z,19.20
2019-03-04T09:22:58.070Z,19.00
2019-03-04T09:25:30.879Z,19.00
2019-03-04T09:28:00.681Z,18.70
2019-03-04T09:30:31.482Z,18.80
2019-03-04T09:33:01.232Z,18.70
2019-03-04T09:35:32.691Z,18.70
2019-03-04T09:38:02.448Z,18.80
2019-03-04T09:40:32.291Z,18.70
2019-03-04T09:43:02.055Z,18.70
2019-03-04T09:45:38.761Z,18.80
2019-03-04T09:48:03.381Z,18.60
2019-03-04T09:50:33.323Z,18.80
2019-03-04T09:53:03.095Z,18.80
2019-03-04T09:55:32.859Z,18.70
2019-03-04T09:58:02.707Z,18.80
2019-03-04T10:00:37.491Z,19.00
2019-03-04T10:04:00.493Z,19.10
2019-03-04T10:07:00.087Z,18.80
2019-03-04T10:10:03.522Z,18.70
2019-03-04T10:13:05.659Z,18.50
2019-03-04T10:16:18.944Z,18.70
2019-03-04T10:19:15.215Z,18.40
2019-03-04T10:21:51.550Z,18.20
2019-03-04T10:24:58.179Z,18.30
2019-03-04T10:28:11.762Z,18.20
2019-03-04T10:31:34.379Z,18.20
2019-03-04T10:34:57.019Z,18.50
2019-03-04T10:37:44.431Z,18.60
2019-03-04T10:41:01.627Z,18.70
2019-03-04T10:43:55.167Z,18.40
2019-03-04T10:46:51.192Z,18.40
2019-03-04T10:49:20.963Z,18.60
2019-03-04T10:51:50.751Z,19.10
2019-03-04T10:54:20.519Z,19.50
2019-03-04T10:56:50.284Z,19.40
2019-03-04T10:59:20.038Z,19.70
2019-03-04T11:01:50.189Z,19.80
2019-03-04T11:04:20.230Z,19.70
2019-03-04T11:06:50.205Z,19.70
2019-03-04T11:09:19.964Z,19.80
2019-03-04T11:11:49.799Z,19.70
2019-03-04T11:14:19.559Z,19.60
2019-03-04T11:16:49.413Z,19.70
2019-03-04T11:19:19.239Z,19.70
2019-03-04T11:21:49.072Z,19.80
2019-03-04T11:24:18.763Z,20.00
2019-03-04T11:26:48.536Z,20.00
2019-03-04T11:29:18.368Z,19.90
2019-03-04T11:31:48.123Z,19.90
2019-03-04T11:34:17.885Z,19.80
2019-03-04T11:36:47.586Z,19.70
2019-03-04T11:39:53.279Z,19.80
2019-03-04T11:42:23.052Z,20.00
2019-03-04T11:44:52.764Z,19.90
2019-03-04T11:47:25.727Z,19.90
2019-03-04T11:49:55.407Z,20.00
2019-03-04T11:52:25.241Z,20.10
2019-03-04T11:54:55.911Z,20.10
2019-03-04T11:57:25.671Z,20.00
2019-03-04T11:59:55.382Z,20.00
2019-03-04T12:02:38.530Z,19.60
2019-03-04T12:05:01.474Z,19.50
2019-03-04T12:07:31.234Z,18.70
2019-03-04T12:10:01.007Z,18.90
2019-03-04T12:12:30.708Z,19.00
2019-03-04T12:15:00.575Z,19.00
2019-03-04T12:17:30.346Z,19.10
2019-03-04T12:20:00.309Z,19.20
2019-03-04T12:22:30.139Z,19.20
2019-03-04T12:24:59.968Z,19.10
2019-03-04T12:27:29.651Z,19.10
2019-03-04T12:29:59.355Z,18.90
2019-03-04T12:32:33.643Z,18.80
2019-03-04T12:35:04.967Z,18.80
2019-03-04T12:37:34.742Z,18.90
2019-03-04T12:40:06.571Z,19.00
2019-03-04T12:42:36.347Z,19.10
2019-03-04T12:45:06.983Z,19.00
2019-03-04T12:47:36.743Z,18.80
2019-03-04T12:50:08.487Z,18.80
2019-03-04T12:52:38.336Z,18.80
2019-03-04T12:55:08.713Z,18.60
2019-03-04T12:57:40.127Z,18.40
2019-03-04T13:00:13.467Z,18.60
2019-03-04T13:02:44.483Z,18.40
2019-03-04T13:05:14.563Z,18.40
2019-03-04T13:07:44.331Z,18.50
2019-03-04T13:10:14.267Z,18.50
2019-03-04T13:12:45.184Z,18.60
2019-03-04T13:15:17.368Z,18.60
2019-03-04T13:17:48.801Z,18.60
2019-03-04T13:20:18.823Z,18.60
2019-03-04T13:22:48.599Z,18.70
2019-03-04T13:25:18.435Z,18.60
2019-03-04T13:27:48.199Z,18.80
2019-03-04T13:30:19.983Z,18.80
2019-03-04T13:32:49.831Z,18.80
2019-03-04T13:35:24.606Z,18.90
2019-03-04T13:37:53.251Z,18.80
2019-03-04T13:40:23.078Z,18.70
2019-03-04T13:42:52.850Z,18.70
2019-03-04T13:45:22.911Z,18.80
2019-03-04T13:47:52.702Z,18.90
2019-03-04T13:50:23.439Z,18.50
2019-03-04T13:52:53.156Z,18.60
2019-03-04T13:55:22.987Z,18.60
2019-03-04T13:57:52.927Z,18.50
2019-03-04T14:00:22.836Z,18.40
2019-03-04T14:02:52.602Z,18.50
2019-03-04T14:05:22.514Z,18.60
2019-03-04T14:07:52.378Z,18.50
2019-03-04T14:10:22.399Z,18.50
2019-03-04T14:12:52.287Z,18.50
2019-03-04T14:15:24.916Z,18.50
2019-03-04T14:17:54.763Z,18.60
2019-03-04T14:20:24.526Z,18.60
2019-03-04T14:22:57.865Z,18.60
2019-03-04T14:25:26.802Z,18.60
2019-03-04T14:27:56.586Z,18.60
2019-03-04T14:30:26.288Z,18.50
2019-03-04T14:32:55.981Z,18.50
2019-03-04T14:35:26.715Z,18.50
2019-03-04T14:37:56.557Z,18.50
2019-03-04T14:40:26.399Z,18.60
2019-03-04T14:42:56.261Z,18.60
2019-03-04T14:45:26.063Z,18.50
2019-03-04T14:47:55.907Z,18.50
2019-03-04T14:50:25.939Z,18.50
2019-03-04T14:52:55.796Z,18.80
2019-03-04T14:55:25.588Z,18.70
2019-03-04T14:57:55.351Z,18.70
2019-03-04T15:00:29.543Z,18.40
2019-03-04T15:03:00.132Z,18.30
2019-03-04T15:05:29.911Z,18.50
2019-03-04T15:07:59.723Z,18.30
2019-03-04T15:10:29.487Z,18.10
2019-03-04T15:12:59.587Z,18.10
2019-03-04T15:15:29.698Z,18.30
2019-03-04T15:17:59.498Z,18.30
2019-03-04T15:20:30.041Z,18.30
2019-03-04T15:22:59.845Z,18.30
2019-03-04T15:25:30.642Z,18.60
2019-03-04T15:28:12.630Z,18.40
2019-03-04T15:30:43.194Z,18.20
2019-03-04T15:33:18.109Z,18.20
2019-03-04T15:35:44.534Z,18.20
2019-03-04T15:38:14.342Z,18.50
2019-03-04T15:40:44.170Z,18.30
2019-03-04T15:43:13.858Z,18.30
2019-03-04T15:45:46.107Z,18.50
2019-03-04T15:48:16.327Z,18.60
2019-03-04T15:50:46.177Z,18.60
2019-03-04T15:53:16.019Z,18.50
2019-03-04T15:55:45.847Z,18.40
2019-03-04T15:58:15.694Z,18.50
2019-03-04T16:00:45.584Z,18.40
2019-03-04T16:03:15.347Z,18.40
2019-03-04T16:05:45.330Z,18.40
2019-03-04T16:08:15.111Z,18.60
2019-03-04T16:10:44.884Z,18.60
2019-03-04T16:13:14.764Z,18.60
2019-03-04T16:15:45.088Z,18.50
2019-03-04T16:18:14.975Z,18.30
2019-03-04T16:20:44.826Z,18.40
2019-03-04T16:23:14.726Z,18.40
2019-03-04T16:25:44.496Z,18.40
2019-03-04T16:28:19.774Z,18.50
2019-03-04T16:30:51.019Z,18.50
2019-03-04T16:33:22.322Z,18.60
2019-03-04T16:35:52.079Z,18.60
2019-03-04T16:38:22.024Z,18.50
2019-03-04T16:40:51.838Z,18.40
2019-03-04T16:43:21.715Z,18.30
2019-03-04T16:45:51.478Z,18.30
2019-03-04T16:48:21.314Z,18.30
2019-03-04T16:50:51.067Z,18.40
2019-03-04T16:53:21.448Z,18.40
2019-03-04T16:55:51.231Z,18.10
2019-03-04T16:58:21.007Z,18.20
2019-03-04T17:00:50.845Z,18.20
2019-03-04T17:03:20.695Z,18.20
2019-03-04T17:05:50.455Z,18.30
2019-03-04T17:08:21.343Z,18.20
2019-03-04T17:10:51.172Z,18.20
2019-03-04T17:13:20.983Z,18.30
2019-03-04T17:15:50.808Z,18.10
2019-03-04T17:18:20.607Z,18.10
2019-03-04T17:20:50.286Z,18.00
2019-03-04T17:23:20.246Z,17.90
2019-03-04T17:25:50.019Z,18.10
2019-03-04T17:28:19.980Z,18.20
2019-03-04T17:30:49.770Z,18.20
2019-03-04T17:33:20.580Z,18.10
2019-03-04T17:35:50.491Z,18.10
2019-03-04T17:38:20.282Z,18.20
2019-03-04T17:40:50.175Z,18.10
2019-03-04T17:43:19.951Z,18.20
2019-03-04T17:45:49.736Z,17.90
2019-03-04T17:48:19.543Z,17.70
2019-03-04T17:50:49.369Z,17.90
2019-03-04T17:53:19.055Z,18.00
2019-03-04T17:55:48.735Z,18.10
2019-03-04T17:58:18.522Z,18.00
2019-03-04T18:00:52.547Z,18.10
2019-03-04T18:03:23.455Z,18.10
2019-03-04T18:05:53.612Z,18.40
2019-03-04T18:08:23.476Z,18.00
2019-03-04T18:10:53.251Z,18.00
2019-03-04T18:13:23.021Z,17.80
2019-03-04T18:15:53.862Z,18.10
2019-03-04T18:18:23.563Z,18.20
2019-03-04T18:20:53.255Z,18.00
2019-03-04T18:23:23.019Z,18.10
2019-03-04T18:26:03.437Z,18.20
2019-03-04T18:29:01.166Z,18.20
2019-03-04T18:32:01.355Z,18.30
2019-03-04T18:35:04.880Z,18.30
2019-03-04T18:37:50.974Z,18.30
2019-03-04T18:40:56.830Z,18.50
2019-03-04T18:43:54.316Z,18.60
2019-03-04T18:47:04.233Z,18.50
2019-03-04T18:49:34.079Z,18.20
2019-03-04T18:52:03.942Z,18.10
2019-03-04T18:54:33.642Z,18.20
2019-03-04T18:57:05.011Z,18.30
2019-03-04T18:59:34.706Z,18.30
2019-03-04T19:02:04.542Z,18.40
2019-03-04T19:04:34.306Z,18.40
2019-03-04T19:07:04.212Z,18.20
2019-03-04T19:09:34.050Z,18.30
2019-03-04T19:12:03.996Z,18.30
2019-03-04T19:14:33.680Z,18.00
2019-03-04T19:17:03.431Z,18.10
2019-03-04T19:19:33.127Z,18.00
2019-03-04T19:22:02.967Z,18.00
2019-03-04T19:24:32.736Z,18.10
2019-03-04T19:27:02.419Z,18.20
2019-03-04T19:29:32.262Z,18.10
2019-03-04T19:32:02.086Z,18.30
2019-03-04T19:34:32.007Z,18.30
2019-03-04T19:37:01.677Z,18.30
2019-03-04T19:39:31.606Z,18.40
2019-03-04T19:42:01.383Z,18.30
2019-03-04T19:44:31.227Z,18.20
2019-03-04T19:47:00.908Z,18.20
2019-03-04T19:49:31.588Z,18.00
2019-03-04T19:52:01.336Z,18.10
2019-03-04T19:54:31.178Z,18.20
2019-03-04T19:57:01.008Z,18.30
2019-03-04T19:59:30.851Z,18.00
2019-03-04T20:02:02.150Z,18.10
2019-03-04T20:04:32.195Z,18.00
2019-03-04T20:07:02.039Z,17.90
2019-03-04T20:09:31.727Z,18.00
2019-03-04T20:12:01.584Z,18.10
2019-03-04T20:14:31.445Z,18.10
2019-03-04T20:17:01.220Z,18.10
2019-03-04T20:19:31.106Z,18.10
2019-03-04T20:22:00.791Z,18.10
2019-03-04T20:24:30.684Z,18.30
2019-03-04T20:27:00.519Z,18.20
2019-03-04T20:29:30.267Z,18.10
2019-03-04T20:32:00.093Z,18.30
2019-03-04T20:34:29.813Z,18.30
2019-03-04T20:37:00.475Z,18.30
2019-03-04T20:39:30.316Z,18.20
2019-03-04T20:42:00.834Z,18.30
2019-03-04T20:44:30.674Z,18.10
2019-03-04T20:47:00.472Z,18.10
2019-03-04T20:49:30.279Z,18.10
2019-03-04T20:52:00.055Z,18.20
2019-03-04T20:54:29.816Z,18.20
2019-03-04T20:56:59.583Z,18.30
2019-03-04T20:59:29.339Z,18.10
2019-03-04T21:01:59.107Z,18.00
2019-03-04T21:04:28.940Z,17.90
2019-03-04T21:06:58.790Z,18.00
2019-03-04T21:09:28.823Z,18.10
2019-03-04T21:11:59.396Z,18.10
2019-03-04T21:14:29.601Z,18.00
2019-03-04T21:16:59.504Z,18.10
2019-03-04T21:19:29.204Z,17.90
2019-03-04T21:21:59.937Z,18.10
2019-03-04T21:24:29.751Z,18.10
2019-03-04T21:26:59.847Z,17.90
2019-03-04T21:30:19.611Z,17.80
2019-03-04T21:32:53.751Z,18.00
2019-03-04T21:36:14.347Z,18.00
2019-03-04T21:38:43.277Z,17.90
2019-03-04T21:41:35.547Z,18.10
2019-03-04T21:44:39.675Z,18.20
2019-03-04T21:47:20.739Z,18.00
2019-03-04T21:49:52.970Z,17.70
2019-03-04T21:52:29.114Z,17.50
2019-03-04T21:54:59.042Z,17.60
2019-03-04T21:57:34.822Z,18.00
2019-03-04T22:00:09.060Z,17.70
2019-03-04T22:02:56.164Z,17.90
2019-03-04T22:05:26.151Z,18.00
2019-03-04T22:07:55.967Z,17.90
2019-03-04T22:10:25.903Z,17.90
2019-03-04T22:12:57.360Z,17.80
2019-03-04T22:15:27.847Z,17.70
2019-03-04T22:17:57.789Z,17.80
2019-03-04T22:20:27.572Z,17.90
2019-03-04T22:22:57.410Z,17.90
2019-03-04T22:25:27.247Z,17.90
2019-03-04T22:27:57.114Z,17.80
2019-03-04T22:30:26.813Z,17.80
2019-03-04T22:32:56.602Z,17.80
2019-03-04T22:35:26.427Z,17.80
2019-03-04T22:37:56.190Z,17.70
2019-03-04T22:40:26.104Z,17.70
2019-03-04T22:42:55.784Z,17.80
2019-03-04T22:45:25.634Z,17.60
2019-03-04T22:47:55.410Z,17.70
2019-03-04T22:50:25.132Z,17.90
2019-03-04T22:52:54.826Z,17.70
2019-03-04T22:55:27.444Z,17.70
2019-03-04T22:57:57.166Z,17.50
2019-03-04T23:01:30.329Z,17.50
2019-03-04T23:04:15.268Z,17.50
2019-03-04T23:06:52.606Z,17.70
2019-03-04T23:09:22.495Z,17.80
2019-03-04T23:11:57.679Z,17.80
2019-03-04T23:14:28.787Z,17.70
2019-03-04T23:17:00.184Z,17.60
2019-03-04T23:19:30.107Z,17.70
2019-03-04T23:21:59.871Z,17.50
2019-03-04T23:24:29.643Z,17.50
2019-03-04T23:26:59.403Z,17.60
2019-03-04T23:29:29.092Z,17.70
2019-03-04T23:31:59.755Z,17.90
2019-03-04T23:34:29.514Z,17.70
2019-03-04T23:36:59.270Z,17.60
2019-03-04T23:39:28.947Z,17.60
2019-03-04T23:41:58.719Z,17.40
2019-03-04T23:44:28.483Z,17.60
2019-03-04T23:46:58.170Z,17.60
2019-03-04T23:49:27.867Z,17.70
2019-03-04T23:51:57.694Z,17.60
2019-03-04T23:54:28.363Z,17.30
2019-03-04T23:56:58.226Z,17.50
2019-03-04T23:59:27.909Z,17.40
